createdAt,value
2018-07-26T00:01:34.602Z,21.50
2018-07-26T00:04:02.936Z,21.50
2018-07-26T00:06:31.300Z,21.30
2018-07-26T00:08:59.636Z,21.30
2018-07-26T00:11:27.954Z,21.40
2018-07-26T00:13:56.251Z,21.30
2018-07-26T00:16:24.596Z,21.20
2018-07-26T00:18:52.925Z,21.10
2018-07-26T00:21:21.288Z,21.00
2018-07-26T00:28:45.739Z,20.70
2018-07-26T00:31:14.069Z,20.70
2018-07-26T00:33:42.433Z,20.50
2018-07-26T00:36:10.787Z,20.40
2018-07-26T00:38:39.103Z,20.20
2018-07-26T00:41:07.415Z,20.30
2018-07-26T00:43:35.766Z,20.30
2018-07-26T00:46:04.066Z,20.30
2018-07-26T00:48:32.438Z,20.20
2018-07-26T00:51:00.787Z,20.20
2018-07-26T00:53:29.314Z,20.20
2018-07-26T00:55:57.623Z,20.20
2018-07-26T00:58:25.946Z,20.10
2018-07-26T01:00:54.245Z,20.10
2018-07-26T01:03:22.549Z,20.10
2018-07-26T01:05:50.874Z,20.00
2018-07-26T01:08:19.187Z,20.00
2018-07-26T01:10:47.534Z,19.90
2018-07-26T01:13:15.862Z,19.90
2018-07-26T01:15:44.179Z,19.80
2018-07-26T01:18:12.459Z,19.70
2018-07-26T01:20:40.785Z,19.70
2018-07-26T01:23:09.081Z,19.60
2018-07-26T01:25:37.371Z,19.60
2018-07-26T01:28:05.719Z,19.50
2018-07-26T01:30:34.027Z,19.40
2018-07-26T01:33:02.392Z,19.40
2018-07-26T01:35:30.683Z,19.40
2018-07-26T01:37:58.983Z,19.40
2018-07-26T01:40:27.251Z,19.40
2018-07-26T01:43:06.910Z,19.30
2018-07-26T01:45:35.229Z,19.20
2018-07-26T01:48:03.568Z,19.10
2018-07-26T01:50:31.958Z,19.10
2018-07-26T01:53:00.279Z,19.10
2018-07-26T01:55:28.557Z,19.10
2018-07-26T01:57:56.876Z,19.00
2018-07-26T02:00:25.157Z,18.90
2018-07-26T02:02:53.463Z,18.80
2018-07-26T02:05:21.756Z,18.80
2018-07-26T02:07:50.057Z,18.80
2018-07-26T02:10:18.366Z,18.70
2018-07-26T02:12:46.784Z,18.50
2018-07-26T02:15:15.122Z,18.40
2018-07-26T02:17:43.438Z,18.30
2018-07-26T02:20:11.818Z,18.20
2018-07-26T02:22:40.108Z,18.10
2018-07-26T02:25:08.408Z,18.10
2018-07-26T02:27:36.714Z,18.10
2018-07-26T02:30:05.568Z,18.20
2018-07-26T02:32:33.874Z,18.30
2018-07-26T02:35:02.241Z,18.40
2018-07-26T02:39:58.547Z,18.50
2018-07-26T02:42:26.852Z,18.50
2018-07-26T02:44:55.200Z,18.50
2018-07-26T02:47:23.503Z,18.30
2018-07-26T02:49:51.867Z,18.30
2018-07-26T02:52:20.132Z,18.30
2018-07-26T02:54:48.393Z,18.20
2018-07-26T02:57:16.721Z,18.10
2018-07-26T02:59:45.041Z,18.20
2018-07-26T03:02:13.318Z,18.10
2018-07-26T03:04:41.656Z,18.10
2018-07-26T03:07:10.051Z,18.10
2018-07-26T03:12:06.396Z,18.00
2018-07-26T03:14:40.571Z,17.90
2018-07-26T03:17:08.928Z,17.80
2018-07-26T03:19:37.261Z,17.70
2018-07-26T03:22:05.617Z,17.50
2018-07-26T03:24:34.238Z,17.40
2018-07-26T03:27:02.598Z,17.40
2018-07-26T03:29:30.958Z,17.40
2018-07-26T03:31:59.278Z,17.50
2018-07-26T03:34:27.568Z,17.60
2018-07-26T03:36:55.886Z,17.70
2018-07-26T03:39:24.248Z,17.70
2018-07-26T03:41:52.614Z,17.80
2018-07-26T03:44:20.920Z,17.80
2018-07-26T03:46:49.239Z,17.80
2018-07-26T03:49:17.594Z,17.70
2018-07-26T03:51:45.954Z,17.70
2018-07-26T03:54:14.298Z,17.60
2018-07-26T03:56:42.673Z,17.60
2018-07-26T03:59:10.995Z,17.60
2018-07-26T04:01:39.393Z,17.80
2018-07-26T04:04:08.442Z,17.80
2018-07-26T04:06:36.770Z,17.70
2018-07-26T04:09:08.303Z,17.70
2018-07-26T04:11:36.599Z,17.60
2018-07-26T04:14:05.055Z,17.70
2018-07-26T04:16:33.370Z,17.60
2018-07-26T04:19:01.676Z,17.60
2018-07-26T04:21:29.937Z,17.70
2018-07-26T04:23:58.327Z,17.70
2018-07-26T04:26:26.636Z,17.80
2018-07-26T04:28:54.916Z,17.80
2018-07-26T04:31:23.248Z,17.80
2018-07-26T04:33:51.548Z,18.00
2018-07-26T04:36:19.940Z,18.10
2018-07-26T04:38:48.250Z,18.20
2018-07-26T04:41:16.615Z,18.30
2018-07-26T04:43:44.939Z,18.50
2018-07-26T04:46:13.284Z,18.50
2018-07-26T04:48:41.606Z,18.70
2018-07-26T04:51:09.915Z,18.90
2018-07-26T04:53:38.267Z,19.10
2018-07-26T04:56:06.573Z,19.30
2018-07-26T04:58:34.896Z,19.60
2018-07-26T05:01:03.243Z,19.70
2018-07-26T05:03:31.638Z,19.90
2018-07-26T05:05:59.926Z,20.00
2018-07-26T05:08:28.258Z,20.20
2018-07-26T05:10:56.595Z,20.40
2018-07-26T05:13:24.912Z,20.50
2018-07-26T05:15:53.237Z,20.60
2018-07-26T05:18:21.641Z,21.00
2018-07-26T05:20:49.933Z,21.30
2018-07-26T05:23:18.245Z,21.60
2018-07-26T05:25:46.503Z,21.60
2018-07-26T05:28:14.819Z,21.60
2018-07-26T05:30:43.167Z,21.80
2018-07-26T05:33:11.483Z,21.90
2018-07-26T05:35:39.802Z,22.00
2018-07-26T05:38:08.111Z,22.20
2018-07-26T05:40:36.434Z,22.40
2018-07-26T05:43:04.789Z,22.60
2018-07-26T05:45:33.088Z,22.90
2018-07-26T05:48:01.449Z,23.00
2018-07-26T05:50:29.771Z,23.40
2018-07-26T05:52:58.112Z,23.50
2018-07-26T05:55:26.418Z,23.90
2018-07-26T05:57:54.709Z,24.20
2018-07-26T06:00:23.050Z,24.40
2018-07-26T06:02:51.382Z,24.70
2018-07-26T06:07:47.792Z,25.00
2018-07-26T06:10:16.102Z,25.50
2018-07-26T06:12:44.427Z,25.50
2018-07-26T06:15:13.261Z,25.50
2018-07-26T06:17:42.007Z,25.80
2018-07-26T06:20:11.698Z,26.20
2018-07-26T06:22:40.535Z,26.50
2018-07-26T06:25:09.739Z,26.80
2018-07-26T06:27:38.137Z,27.00
2018-07-26T06:30:08.766Z,27.20
2018-07-26T06:32:37.119Z,27.40
2018-07-26T06:35:06.182Z,27.60
2018-07-26T06:37:34.530Z,27.80
2018-07-26T06:40:02.990Z,28.10
2018-07-26T06:42:31.337Z,28.40
2018-07-26T06:44:59.676Z,28.80
2018-07-26T06:47:28.050Z,29.30
2018-07-26T06:49:56.547Z,29.40
2018-07-26T06:52:24.857Z,29.40
2018-07-26T06:54:53.176Z,29.40
2018-07-26T06:57:21.565Z,29.70
2018-07-26T06:59:49.909Z,29.80
2018-07-26T07:04:47.322Z,30.20
2018-07-26T07:07:15.643Z,30.40
2018-07-26T07:09:43.935Z,30.20
2018-07-26T07:12:12.260Z,29.60
2018-07-26T07:14:40.652Z,29.80
2018-07-26T07:17:09.112Z,30.00
2018-07-26T07:19:37.462Z,30.40
2018-07-26T07:22:05.837Z,30.80
2018-07-26T07:24:34.860Z,31.00
2018-07-26T07:27:03.138Z,31.40
2018-07-26T07:29:31.476Z,31.80
2018-07-26T07:31:59.795Z,31.90
2018-07-26T07:34:28.117Z,32.20
2018-07-26T07:36:56.431Z,32.50
2018-07-26T07:39:24.729Z,32.20
2018-07-26T07:41:53.077Z,32.30
2018-07-26T07:44:21.422Z,32.00
2018-07-26T07:46:49.802Z,32.00
2018-07-26T07:49:18.137Z,32.00
2018-07-26T07:51:46.478Z,31.90
2018-07-26T07:54:14.800Z,32.00
2018-07-26T07:56:43.154Z,31.90
2018-07-26T07:59:11.506Z,31.70
2018-07-26T08:01:39.880Z,31.40
2018-07-26T08:04:08.227Z,31.60
2018-07-26T08:06:36.601Z,31.70
2018-07-26T08:09:08.078Z,32.30
2018-07-26T08:11:36.407Z,32.20
2018-07-26T08:14:05.380Z,32.10
2018-07-26T08:16:33.752Z,32.90
2018-07-26T08:19:02.304Z,33.10
2018-07-26T08:21:30.754Z,33.20
2018-07-26T08:23:59.105Z,32.90
2018-07-26T08:26:27.559Z,33.10
2018-07-26T08:28:55.978Z,33.10
2018-07-26T08:31:24.328Z,33.00
2018-07-26T08:33:52.779Z,33.10
2018-07-26T08:36:21.164Z,33.30
2018-07-26T08:38:49.549Z,33.70
2018-07-26T08:41:17.911Z,33.50
2018-07-26T08:43:46.330Z,33.60
2018-07-26T08:46:15.496Z,33.60
2018-07-26T08:48:43.925Z,33.50
2018-07-26T08:51:12.378Z,33.50
2018-07-26T08:53:40.700Z,33.30
2018-07-26T08:56:09.041Z,32.80
2018-07-26T08:58:37.383Z,33.00
2018-07-26T09:01:06.075Z,33.30
2018-07-26T09:03:34.453Z,33.40
2018-07-26T09:06:02.824Z,33.70
2018-07-26T09:08:31.216Z,33.60
2018-07-26T09:10:59.673Z,33.70
2018-07-26T09:13:28.004Z,33.50
2018-07-26T09:15:56.343Z,33.10
2018-07-26T09:18:24.681Z,33.30
2018-07-26T09:20:53.064Z,33.60
2018-07-26T09:23:21.674Z,33.60
2018-07-26T09:25:50.058Z,33.50
2018-07-26T09:28:18.437Z,33.60
2018-07-26T09:30:46.788Z,33.50
2018-07-26T09:33:15.166Z,33.40
2018-07-26T09:35:43.570Z,33.20
2018-07-26T09:38:11.924Z,32.60
2018-07-26T09:40:40.253Z,32.70
2018-07-26T09:43:08.635Z,33.10
2018-07-26T09:45:36.990Z,33.40
2018-07-26T09:48:05.371Z,33.60
2018-07-26T09:50:33.721Z,33.50
2018-07-26T09:53:02.088Z,33.30
2018-07-26T09:55:30.433Z,32.70
2018-07-26T09:57:58.733Z,32.60
2018-07-26T10:00:32.690Z,33.00
2018-07-26T10:03:01.224Z,33.00
2018-07-26T10:05:29.681Z,32.90
2018-07-26T10:07:58.153Z,33.20
2018-07-26T10:10:26.517Z,33.00
2018-07-26T10:12:54.913Z,32.80
2018-07-26T10:15:23.685Z,32.80
2018-07-26T10:17:52.077Z,33.20
2018-07-26T10:20:20.490Z,33.40
2018-07-26T10:22:48.879Z,33.40
2018-07-26T10:25:17.220Z,33.50
2018-07-26T10:30:13.637Z,33.30
2018-07-26T10:32:42.017Z,33.30
2018-07-26T10:35:10.363Z,32.70
2018-07-26T10:37:38.722Z,32.40
2018-07-26T10:40:07.157Z,32.90
2018-07-26T10:42:35.556Z,32.90
2018-07-26T10:45:04.013Z,33.30
2018-07-26T10:47:32.370Z,33.20
2018-07-26T10:50:00.774Z,33.00
2018-07-26T10:52:29.094Z,33.10
2018-07-26T10:54:57.541Z,33.30
2018-07-26T10:57:25.925Z,33.40
2018-07-26T10:59:54.301Z,33.30
2018-07-26T11:02:22.674Z,33.50
2018-07-26T11:04:51.031Z,33.20
2018-07-26T11:07:19.406Z,33.10
2018-07-26T11:09:47.778Z,33.20
2018-07-26T11:12:16.126Z,33.40
2018-07-26T11:19:40.543Z,33.40
2018-07-26T11:22:08.894Z,33.40
2018-07-26T11:24:37.261Z,33.70
2018-07-26T11:27:05.674Z,33.70
2018-07-26T11:29:34.500Z,33.80
2018-07-26T11:32:02.864Z,34.10
2018-07-26T11:34:31.187Z,34.00
2018-07-26T11:36:59.521Z,34.20
2018-07-26T11:39:27.892Z,34.50
2018-07-26T11:41:56.259Z,34.10
2018-07-26T11:44:24.597Z,33.50
2018-07-26T11:46:52.984Z,33.40
2018-07-26T11:49:21.316Z,33.50
2018-07-26T11:51:49.634Z,33.70
2018-07-26T11:54:18.005Z,33.90
2018-07-26T11:56:46.389Z,34.30
2018-07-26T11:59:14.817Z,34.10
2018-07-26T12:01:43.231Z,34.00
2018-07-26T12:04:11.588Z,33.90
2018-07-26T12:06:39.961Z,34.20
2018-07-26T12:09:09.735Z,34.10
2018-07-26T12:11:38.067Z,34.00
2018-07-26T12:14:06.406Z,34.70
2018-07-26T12:16:34.780Z,35.00
2018-07-26T12:19:03.184Z,35.50
2018-07-26T12:21:31.705Z,35.90
2018-07-26T12:24:00.079Z,36.10
2018-07-26T12:26:28.446Z,35.90
2018-07-26T12:28:56.787Z,36.00
2018-07-26T12:31:25.275Z,36.20
2018-07-26T12:33:53.642Z,36.00
2018-07-26T12:36:22.098Z,35.50
2018-07-26T12:38:50.482Z,35.70
2018-07-26T12:41:18.957Z,36.00
2018-07-26T12:43:47.373Z,36.00
2018-07-26T12:46:15.769Z,36.30
2018-07-26T12:48:44.137Z,36.50
2018-07-26T12:51:12.542Z,36.80
2018-07-26T12:53:40.880Z,36.80
2018-07-26T12:56:09.234Z,37.30
2018-07-26T13:01:05.816Z,37.60
2018-07-26T13:03:34.233Z,38.10
2018-07-26T13:06:02.626Z,38.30
2018-07-26T13:08:31.051Z,38.40
2018-07-26T13:10:59.705Z,38.80
2018-07-26T13:13:28.010Z,38.90
2018-07-26T13:15:56.401Z,38.10
2018-07-26T13:18:24.768Z,38.30
2018-07-26T13:20:53.116Z,38.30
2018-07-26T13:23:21.477Z,39.00
2018-07-26T13:25:49.809Z,39.70
2018-07-26T13:28:18.210Z,39.10
2018-07-26T13:30:46.581Z,38.80
2018-07-26T13:33:14.928Z,38.90
2018-07-26T13:35:43.276Z,37.90
2018-07-26T13:38:11.630Z,37.50
2018-07-26T13:40:40.005Z,37.90
2018-07-26T13:43:08.352Z,38.30
2018-07-26T13:48:04.785Z,38.50
2018-07-26T13:50:33.155Z,38.90
2018-07-26T13:53:01.557Z,39.80
2018-07-26T13:55:29.889Z,39.70
2018-07-26T13:57:58.295Z,39.10
2018-07-26T14:00:26.614Z,38.60
2018-07-26T14:02:54.982Z,38.50
2018-07-26T14:05:23.418Z,37.90
2018-07-26T14:10:27.090Z,37.90
2018-07-26T14:12:55.441Z,38.30
2018-07-26T14:15:23.857Z,39.20
2018-07-26T14:17:52.188Z,39.30
2018-07-26T14:27:44.734Z,39.20
2018-07-26T14:30:13.075Z,38.80
2018-07-26T14:32:41.455Z,39.10
2018-07-26T14:35:09.865Z,40.00
2018-07-26T14:37:38.231Z,40.50
2018-07-26T14:40:06.608Z,39.60
2018-07-26T14:42:34.950Z,40.00
2018-07-26T14:45:03.337Z,39.50
2018-07-26T14:49:59.851Z,40.30
2018-07-26T14:52:28.213Z,39.60
2018-07-26T14:54:56.584Z,39.50
2018-07-26T14:57:25.123Z,38.90
2018-07-26T14:59:53.589Z,38.10
2018-07-26T15:02:22.033Z,38.10
2018-07-26T15:04:50.462Z,38.50
2018-07-26T15:07:18.885Z,39.10
2018-07-26T15:09:47.301Z,39.50
2018-07-26T15:12:15.652Z,39.40
2018-07-26T15:14:43.992Z,40.20
2018-07-26T15:17:12.379Z,40.20
2018-07-26T15:19:40.701Z,39.80
2018-07-26T15:22:09.039Z,40.10
2018-07-26T15:24:37.477Z,40.00
2018-07-26T15:27:05.950Z,40.00
2018-07-26T15:29:34.297Z,40.40
2018-07-26T15:32:02.639Z,40.30
2018-07-26T15:34:31.015Z,40.20
2018-07-26T15:36:59.408Z,40.40
2018-07-26T15:39:27.769Z,39.60
2018-07-26T15:41:56.148Z,39.00
2018-07-26T15:49:20.735Z,38.70
2018-07-26T15:51:49.099Z,38.40
2018-07-26T15:54:17.574Z,38.20
2018-07-26T15:56:46.002Z,38.70
2018-07-26T15:59:14.295Z,39.60
2018-07-26T16:01:42.726Z,40.30
2018-07-26T16:04:11.081Z,39.80
2018-07-26T16:06:39.422Z,39.50
2018-07-26T16:09:10.291Z,40.00
2018-07-26T16:11:38.748Z,40.10
2018-07-26T16:14:07.263Z,39.70
2018-07-26T16:16:35.710Z,39.40
2018-07-26T16:19:04.483Z,39.90
2018-07-26T16:21:32.863Z,40.40
2018-07-26T16:24:01.357Z,39.50
2018-07-26T16:26:29.693Z,39.00
2018-07-26T16:28:58.149Z,39.10
2018-07-26T16:31:26.479Z,39.70
2018-07-26T16:33:54.889Z,39.80
2018-07-26T16:36:23.232Z,38.80
2018-07-26T16:38:51.621Z,38.50
2018-07-26T16:41:20.062Z,38.30
2018-07-26T16:43:48.489Z,38.30
2018-07-26T16:46:16.862Z,37.90
2018-07-26T16:48:45.239Z,37.60
2018-07-26T16:51:13.619Z,37.50
2018-07-26T16:53:41.992Z,37.10
2018-07-26T16:56:10.385Z,37.30
2018-07-26T16:58:38.836Z,37.30
2018-07-26T17:01:07.166Z,37.30
2018-07-26T17:03:35.502Z,37.40
2018-07-26T17:06:03.895Z,37.40
2018-07-26T17:08:32.262Z,37.30
2018-07-26T17:11:00.611Z,37.20
2018-07-26T17:13:29.021Z,36.70
2018-07-26T17:15:57.369Z,36.10
2018-07-26T17:18:25.721Z,36.00
2018-07-26T17:20:54.149Z,36.20
2018-07-26T17:23:22.581Z,36.00
2018-07-26T17:25:50.931Z,35.60
2018-07-26T17:28:19.285Z,35.10
2018-07-26T17:30:47.653Z,34.60
2018-07-26T17:33:16.035Z,34.00
2018-07-26T17:35:44.478Z,33.70
2018-07-26T17:38:12.817Z,33.20
2018-07-26T17:40:41.187Z,32.80
2018-07-26T17:43:09.729Z,32.60
2018-07-26T17:45:38.144Z,32.40
2018-07-26T17:48:06.779Z,32.30
2018-07-26T17:50:35.177Z,32.20
2018-07-26T17:53:03.502Z,32.00
2018-07-26T17:55:31.887Z,31.90
2018-07-26T17:58:00.262Z,31.60
2018-07-26T18:02:56.714Z,31.30
2018-07-26T18:05:25.135Z,31.10
2018-07-26T18:07:53.512Z,31.10
2018-07-26T18:10:21.834Z,31.00
2018-07-26T18:12:50.235Z,30.90
2018-07-26T18:15:18.594Z,30.80
2018-07-26T18:17:46.987Z,30.80
2018-07-26T18:20:15.418Z,30.70
2018-07-26T18:22:43.779Z,30.70
2018-07-26T18:25:12.174Z,30.70
2018-07-26T18:27:40.548Z,30.60
2018-07-26T18:30:09.284Z,30.60
2018-07-26T18:35:06.314Z,30.30
2018-07-26T18:37:34.722Z,30.30
2018-07-26T18:40:03.183Z,30.10
2018-07-26T18:42:31.567Z,30.10
2018-07-26T18:45:00.025Z,30.00
2018-07-26T18:47:28.390Z,29.90
2018-07-26T18:49:56.776Z,29.80
2018-07-26T18:52:25.184Z,29.70
2018-07-26T18:54:53.564Z,29.50
2018-07-26T18:57:21.966Z,29.50
2018-07-26T18:59:50.321Z,29.50
2018-07-26T19:02:18.752Z,29.40
2018-07-26T19:04:47.096Z,29.20
2018-07-26T19:07:15.473Z,29.20
2018-07-26T19:09:43.869Z,29.20
2018-07-26T19:12:12.233Z,29.20
2018-07-26T19:17:08.659Z,29.10
2018-07-26T19:19:37.000Z,28.80
2018-07-26T19:22:05.545Z,28.80
2018-07-26T19:24:33.898Z,28.60
2018-07-26T19:27:02.477Z,28.40
2018-07-26T19:29:30.860Z,28.20
2018-07-26T19:31:59.237Z,28.00
2018-07-26T19:34:27.625Z,27.90
2018-07-26T19:36:56.015Z,27.80
2018-07-26T19:39:24.388Z,27.60
2018-07-26T19:41:52.758Z,27.50
2018-07-26T19:44:21.085Z,27.30
2018-07-26T19:46:49.464Z,27.20
2018-07-26T19:49:18.078Z,27.10
2018-07-26T19:51:46.428Z,27.00
2018-07-26T19:54:14.818Z,27.00
2018-07-26T19:56:43.175Z,26.90
2018-07-26T19:59:11.497Z,26.80
2018-07-26T20:01:39.871Z,26.60
2018-07-26T20:04:08.386Z,26.60
2018-07-26T20:06:36.723Z,26.50
2018-07-26T20:09:07.922Z,26.30
2018-07-26T20:11:36.338Z,26.20
2018-07-26T20:14:05.172Z,26.00
2018-07-26T20:16:33.535Z,25.90
2018-07-26T20:19:01.983Z,25.80
2018-07-26T20:21:30.378Z,25.70
2018-07-26T20:23:58.736Z,25.70
2018-07-26T20:26:27.138Z,25.70
2018-07-26T20:28:55.470Z,25.60
2018-07-26T20:31:23.878Z,25.50
2018-07-26T20:33:52.236Z,25.40
2018-07-26T20:36:20.599Z,25.20
2018-07-26T20:38:49.015Z,25.00
2018-07-26T20:41:17.372Z,24.90
2018-07-26T20:43:45.767Z,24.70
2018-07-26T20:46:14.138Z,24.70
2018-07-26T20:48:42.625Z,24.70
2018-07-26T20:51:11.109Z,24.50
2018-07-26T20:53:39.456Z,24.50
2018-07-26T20:56:07.897Z,24.40
2018-07-26T20:58:36.261Z,24.40
2018-07-26T21:01:04.619Z,24.40
2018-07-26T21:03:33.052Z,24.20
2018-07-26T21:06:01.395Z,24.10
2018-07-26T21:08:29.752Z,24.20
2018-07-26T21:10:58.071Z,24.10
2018-07-26T21:13:26.413Z,24.10
2018-07-26T21:15:54.766Z,24.10
2018-07-26T21:18:23.499Z,24.10
2018-07-26T21:20:51.831Z,24.00
2018-07-26T21:23:20.182Z,24.00
2018-07-26T21:25:48.584Z,23.90
2018-07-26T21:28:16.929Z,23.90
2018-07-26T21:30:45.299Z,23.80
2018-07-26T21:33:14.053Z,23.70
2018-07-26T21:35:42.378Z,23.60
2018-07-26T21:38:10.860Z,23.50
2018-07-26T21:40:39.288Z,23.40
2018-07-26T21:43:07.613Z,23.30
2018-07-26T21:45:35.957Z,23.10
2018-07-26T21:48:04.268Z,23.10
2018-07-26T21:50:32.639Z,23.00
2018-07-26T21:53:01.037Z,22.90
2018-07-26T21:55:29.388Z,22.90
2018-07-26T21:57:57.936Z,22.80
2018-07-26T22:00:36.524Z,22.80
2018-07-26T22:03:05.709Z,22.70
2018-07-26T22:05:34.019Z,22.60
2018-07-26T22:15:26.497Z,22.50
2018-07-26T22:17:54.838Z,22.60
2018-07-26T22:20:23.212Z,22.50
2018-07-26T22:22:51.539Z,22.50
2018-07-26T22:25:19.860Z,22.50
2018-07-26T22:27:48.264Z,22.40
2018-07-26T22:30:16.636Z,22.40
2018-07-26T22:32:44.977Z,22.30
2018-07-26T22:35:13.315Z,22.30
2018-07-26T22:40:09.694Z,22.20
2018-07-26T22:42:38.044Z,22.10
2018-07-26T22:45:06.918Z,22.10
2018-07-26T22:47:35.291Z,22.00
2018-07-26T22:50:03.700Z,22.00
2018-07-26T22:52:32.041Z,21.90
2018-07-26T22:55:00.370Z,22.00
2018-07-26T22:57:28.704Z,22.00
2018-07-26T22:59:57.033Z,21.90
2018-07-26T23:02:25.368Z,22.00
2018-07-26T23:04:53.690Z,22.00
2018-07-26T23:07:22.073Z,22.10
2018-07-26T23:09:50.364Z,22.00
2018-07-26T23:12:18.721Z,22.00
2018-07-26T23:14:47.049Z,21.90
2018-07-26T23:17:15.378Z,21.90
2018-07-26T23:19:43.717Z,21.80
2018-07-26T23:22:12.045Z,21.80
2018-07-26T23:24:40.351Z,21.60
2018-07-26T23:27:08.686Z,21.60
2018-07-26T23:29:37.018Z,21.50
2018-07-26T23:32:05.416Z,21.40
2018-07-26T23:34:33.760Z,21.30
2018-07-26T23:37:02.064Z,21.30
2018-07-26T23:41:58.449Z,21.20
2018-07-26T23:44:26.781Z,21.10
2018-07-26T23:46:55.091Z,21.10
2018-07-26T23:49:23.419Z,21.10
2018-07-26T23:51:51.728Z,21.00
2018-07-26T23:54:20.074Z,21.00
2018-07-26T23:56:48.377Z,21.00
2018-07-26T23:59:16.689Z,21.00
